createdAt,value
2018-09-15T00:02:00.305Z,15.72
2018-09-15T00:04:29.235Z,13.85
2018-09-15T00:06:58.339Z,14.95
2018-09-15T00:09:27.271Z,15.58
2018-09-15T00:11:56.333Z,15.30
2018-09-15T00:14:25.292Z,15.48
2018-09-15T00:16:54.453Z,15.65
2018-09-15T00:19:23.389Z,15.15
2018-09-15T00:21:52.300Z,15.72
2018-09-15T00:24:21.584Z,15.60
2018-09-15T00:26:50.533Z,14.87
2018-09-15T00:29:19.477Z,15.20
2018-09-15T00:31:48.793Z,14.83
2018-09-15T00:34:17.814Z,15.48
2018-09-15T00:36:46.752Z,15.03
2018-09-15T00:39:15.680Z,15.68
2018-09-15T00:41:44.621Z,15.30
2018-09-15T00:44:13.744Z,16.52
2018-09-15T00:46:42.679Z,15.53
2018-09-15T00:49:11.656Z,15.53
2018-09-15T00:51:40.602Z,15.00
2018-09-15T00:54:09.504Z,16.32
2018-09-15T00:56:38.550Z,16.20
2018-09-15T00:59:07.724Z,16.35
2018-09-15T01:01:36.662Z,15.72
2018-09-15T01:04:05.678Z,15.13
2018-09-15T01:06:34.805Z,16.02
2018-09-15T01:09:04.657Z,17.62
2018-09-15T01:11:33.575Z,15.50
2018-09-15T01:14:03.433Z,16.30
2018-09-15T01:16:32.588Z,16.77
2018-09-15T01:19:01.522Z,15.25
2018-09-15T01:21:30.517Z,15.53
2018-09-15T01:23:59.460Z,15.65
2018-09-15T01:26:28.430Z,15.68
2018-09-15T01:28:57.344Z,14.53
2018-09-15T01:31:26.354Z,14.80
2018-09-15T01:33:55.274Z,14.87
2018-09-15T01:36:24.239Z,14.93
2018-09-15T01:38:53.175Z,14.87
2018-09-15T01:41:22.183Z,14.25
2018-09-15T01:43:51.221Z,15.85
2018-09-15T01:46:20.154Z,15.78
2018-09-15T01:48:49.101Z,16.52
2018-09-15T01:51:18.039Z,16.40
2018-09-15T01:53:46.999Z,15.15
2018-09-15T01:56:15.929Z,15.23
2018-09-15T01:58:44.875Z,15.38
2018-09-15T02:01:13.856Z,13.40
2018-09-15T02:03:42.869Z,16.52
2018-09-15T02:06:12.191Z,17.32
2018-09-15T02:08:41.275Z,17.00
2018-09-15T02:11:10.233Z,17.15
2018-09-15T02:13:39.182Z,17.75
2018-09-15T02:16:08.127Z,16.10
2018-09-15T02:18:37.039Z,17.55
2018-09-15T02:21:06.208Z,17.02
2018-09-15T02:23:35.312Z,17.90
2018-09-15T02:26:04.316Z,17.32
2018-09-15T02:28:33.254Z,17.23
2018-09-15T02:31:02.302Z,16.55
2018-09-15T02:33:31.208Z,16.67
2018-09-15T02:36:00.508Z,16.27
2018-09-15T02:38:29.454Z,17.15
2018-09-15T02:40:58.470Z,15.88
2018-09-15T02:43:27.399Z,15.95
2018-09-15T02:45:56.348Z,15.08
2018-09-15T02:48:25.284Z,14.73
2018-09-15T02:50:54.337Z,14.93
2018-09-15T02:53:23.281Z,13.98
2018-09-15T02:55:52.209Z,14.23
2018-09-15T02:58:21.110Z,15.28
2018-09-15T03:00:50.107Z,14.18
2018-09-15T03:03:19.017Z,14.55
2018-09-15T03:05:48.151Z,15.03
2018-09-15T03:08:17.109Z,14.98
2018-09-15T03:10:46.068Z,14.35
2018-09-15T03:13:15.195Z,15.32
2018-09-15T03:15:44.139Z,15.83
2018-09-15T03:18:13.217Z,15.75
2018-09-15T03:20:42.156Z,14.95
2018-09-15T03:23:11.187Z,15.85
2018-09-15T03:25:40.139Z,15.50
2018-09-15T03:28:09.101Z,15.78
2018-09-15T03:30:38.128Z,16.23
2018-09-15T03:33:07.129Z,16.27
2018-09-15T03:35:36.077Z,15.10
2018-09-15T03:38:05.557Z,15.50
2018-09-15T03:40:34.476Z,14.80
2018-09-15T03:43:03.589Z,15.50
2018-09-15T03:45:32.544Z,15.70
2018-09-15T03:48:01.474Z,14.30
2018-09-15T03:50:30.399Z,14.53
2018-09-15T03:52:59.472Z,14.23
2018-09-15T03:55:33.939Z,14.23
2018-09-15T03:58:02.884Z,13.40
2018-09-15T04:00:31.860Z,13.62
2018-09-15T04:03:00.985Z,12.85
2018-09-15T04:05:29.980Z,13.58
2018-09-15T04:07:58.923Z,14.23
2018-09-15T04:10:27.881Z,13.30
2018-09-15T04:12:56.815Z,14.10
2018-09-15T04:15:25.750Z,12.82
2018-09-15T04:17:54.741Z,13.80
2018-09-15T04:20:23.833Z,13.38
2018-09-15T04:22:52.772Z,13.72
2018-09-15T04:25:21.728Z,13.55
2018-09-15T04:27:50.745Z,13.40
2018-09-15T04:30:19.671Z,12.90
2018-09-15T04:32:48.608Z,12.47
2018-09-15T04:35:17.600Z,13.48
2018-09-15T04:37:46.678Z,13.43
2018-09-15T04:40:15.634Z,13.18
2018-09-15T04:42:44.614Z,12.65
2018-09-15T04:45:13.641Z,11.95
2018-09-15T04:47:42.714Z,12.58
2018-09-15T04:50:11.676Z,13.32
2018-09-15T04:52:40.677Z,13.88
2018-09-15T04:55:09.932Z,13.95
2018-09-15T04:57:38.892Z,12.95
2018-09-15T05:00:07.917Z,13.22
2018-09-15T05:02:36.849Z,13.75
2018-09-15T05:05:05.946Z,13.43
2018-09-15T05:07:35.002Z,13.58
2018-09-15T05:10:04.046Z,12.43
2018-09-15T05:12:33.079Z,13.13
2018-09-15T05:15:02.190Z,12.35
2018-09-15T05:17:31.236Z,13.78
2018-09-15T05:20:00.207Z,14.33
2018-09-15T05:22:29.134Z,14.30
2018-09-15T05:24:58.113Z,12.93
2018-09-15T05:27:27.209Z,14.18
2018-09-15T05:29:56.285Z,14.18
2018-09-15T05:32:25.277Z,15.38
2018-09-15T05:34:54.229Z,14.28
2018-09-15T05:37:23.242Z,14.73
2018-09-15T05:39:52.219Z,15.20
2018-09-15T05:42:21.367Z,15.95
2018-09-15T05:44:50.439Z,15.70
2018-09-15T05:47:19.389Z,15.38
2018-09-15T05:49:48.397Z,15.58
2018-09-15T05:52:17.521Z,14.93
2018-09-15T05:54:46.461Z,16.10
2018-09-15T05:57:15.382Z,15.88
2018-09-15T05:59:44.691Z,16.15
2018-09-15T06:02:13.653Z,16.25
2018-09-15T06:04:42.798Z,16.65
2018-09-15T06:07:11.745Z,17.32
2018-09-15T06:09:40.693Z,16.42
2018-09-15T06:12:09.767Z,17.37
2018-09-15T06:14:38.833Z,15.90
2018-09-15T06:17:07.777Z,17.10
2018-09-15T06:19:36.833Z,16.87
2018-09-15T06:22:06.221Z,16.27
2018-09-15T06:24:35.164Z,17.42
2018-09-15T06:27:04.150Z,16.77
2018-09-15T06:29:33.216Z,16.35
2018-09-15T06:32:02.436Z,16.97
2018-09-15T06:34:31.504Z,17.57
2018-09-15T06:37:00.454Z,17.30
2018-09-15T06:39:29.415Z,17.92
2018-09-15T06:41:58.643Z,18.35
2018-09-15T06:44:27.590Z,18.85
2018-09-15T06:46:56.592Z,18.05
2018-09-15T06:49:25.564Z,19.73
2018-09-15T06:51:54.576Z,19.25
2018-09-15T06:54:23.702Z,19.65
2018-09-15T06:56:52.783Z,18.67
2018-09-15T06:59:21.790Z,18.10
2018-09-15T07:01:50.791Z,17.62
2018-09-15T07:04:19.785Z,18.75
2018-09-15T07:06:48.721Z,19.12
2018-09-15T07:09:17.714Z,19.05
2018-09-15T07:11:46.900Z,19.60
2018-09-15T07:14:15.996Z,18.30
2018-09-15T07:16:44.942Z,18.50
2018-09-15T07:19:14.026Z,18.60
2018-09-15T07:21:43.042Z,18.67
2018-09-15T07:24:12.172Z,18.12
2018-09-15T07:26:41.222Z,16.42
2018-09-15T07:29:10.202Z,18.05
2018-09-15T07:31:39.219Z,17.62
2018-09-15T07:34:08.379Z,18.45
2018-09-15T07:36:37.433Z,17.40
2018-09-15T07:39:08.891Z,17.27
2018-09-15T07:41:37.934Z,18.82
2018-09-15T07:44:11.103Z,16.50
2018-09-15T07:46:40.080Z,17.12
2018-09-15T07:49:09.031Z,16.60
2018-09-15T07:51:38.362Z,16.37
2018-09-15T07:54:07.565Z,16.15
2018-09-15T07:56:36.608Z,14.40
2018-09-15T07:59:05.779Z,15.32
2018-09-15T08:01:35.062Z,13.18
2018-09-15T08:04:04.249Z,14.20
2018-09-15T08:06:33.269Z,12.65
2018-09-15T08:09:02.278Z,12.47
2018-09-15T08:11:31.340Z,11.08
2018-09-15T08:14:00.362Z,11.28
2018-09-15T08:16:29.460Z,9.48
2018-09-15T08:18:58.447Z,8.15
2018-09-15T08:21:27.598Z,8.70
2018-09-15T08:23:56.568Z,9.98
2018-09-15T08:26:25.552Z,9.65
2018-09-15T08:28:54.724Z,8.45
2018-09-15T08:31:23.686Z,8.75
2018-09-15T08:33:52.684Z,9.20
2018-09-15T08:36:21.724Z,8.65
2018-09-15T08:38:51.006Z,7.45
2018-09-15T08:41:20.012Z,7.45
2018-09-15T08:43:49.320Z,7.97
2018-09-15T08:46:18.375Z,7.28
2018-09-15T08:48:47.396Z,7.40
2018-09-15T08:51:16.368Z,7.80
2018-09-15T08:53:45.380Z,8.33
2018-09-15T08:56:14.498Z,8.18
2018-09-15T08:58:43.737Z,7.03
2018-09-15T09:01:12.693Z,6.80
2018-09-15T09:03:41.828Z,6.78
2018-09-15T09:06:11.035Z,6.80
2018-09-15T09:08:40.001Z,6.70
2018-09-15T09:11:08.943Z,5.10
2018-09-15T09:13:38.826Z,5.90
2018-09-15T09:16:08.186Z,5.40
2018-09-15T09:18:37.276Z,6.50
2018-09-15T09:21:06.253Z,6.05
2018-09-15T09:23:35.210Z,4.87
2018-09-15T09:26:04.267Z,4.70
2018-09-15T09:28:33.477Z,4.00
2018-09-15T09:31:02.482Z,3.90
2018-09-15T09:33:32.039Z,4.30
2018-09-15T09:36:01.017Z,3.83
2018-09-15T09:38:29.955Z,3.15
2018-09-15T09:40:58.953Z,3.47
2018-09-15T09:43:27.899Z,3.60
2018-09-15T09:45:56.897Z,3.58
2018-09-15T09:48:25.951Z,3.30
2018-09-15T09:51:01.597Z,3.10
2018-09-15T09:53:30.565Z,2.65
2018-09-15T09:56:00.104Z,2.22
2018-09-15T09:58:29.058Z,2.20
2018-09-15T10:00:58.327Z,1.75
2018-09-15T10:03:28.202Z,1.90
2018-09-15T10:05:57.261Z,1.80
2018-09-15T10:08:26.247Z,1.87
2018-09-15T10:10:55.233Z,2.05
2018-09-15T10:13:24.295Z,1.62
2018-09-15T10:15:53.310Z,2.50
2018-09-15T10:18:22.394Z,2.20
2018-09-15T10:20:51.340Z,2.08
2018-09-15T10:23:20.764Z,1.95
2018-09-15T10:25:49.967Z,1.50
2018-09-15T10:28:18.921Z,2.27
2018-09-15T10:30:47.864Z,1.87
2018-09-15T10:33:16.796Z,1.85
2018-09-15T10:35:45.724Z,2.05
2018-09-15T10:38:14.891Z,1.72
2018-09-15T10:40:43.966Z,1.90
2018-09-15T10:43:13.044Z,1.70
2018-09-15T10:45:42.108Z,1.90
2018-09-15T10:48:11.156Z,2.00
2018-09-15T10:50:40.103Z,2.10
2018-09-15T10:53:09.142Z,1.90
2018-09-15T10:55:37.771Z,2.00
2018-09-15T10:58:07.076Z,1.80
2018-09-15T11:00:36.134Z,1.75
2018-09-15T11:03:05.314Z,1.32
2018-09-15T11:05:34.227Z,1.87
2018-09-15T11:08:03.151Z,1.70
2018-09-15T11:10:31.834Z,1.73
2018-09-15T11:13:00.878Z,1.60
2018-09-15T11:15:29.850Z,1.85
2018-09-15T11:17:59.042Z,1.60
2018-09-15T11:20:27.978Z,1.52
2018-09-15T11:22:56.958Z,1.52
2018-09-15T11:25:25.894Z,1.22
2018-09-15T11:27:54.812Z,1.30
2018-09-15T11:30:23.769Z,1.20
2018-09-15T11:32:53.014Z,1.22
2018-09-15T11:35:21.690Z,1.40
2018-09-15T11:37:50.619Z,1.20
2018-09-15T11:40:19.219Z,1.60
2018-09-15T11:42:47.841Z,1.50
2018-09-15T11:45:16.637Z,1.87
2018-09-15T11:47:45.408Z,1.50
2018-09-15T11:50:14.225Z,1.40
2018-09-15T11:52:43.527Z,1.50
2018-09-15T11:55:12.223Z,1.30
2018-09-15T11:57:40.862Z,1.47
2018-09-15T12:00:09.680Z,1.30
2018-09-15T12:02:38.512Z,1.30
2018-09-15T12:05:07.243Z,1.40
2018-09-15T12:07:35.911Z,1.70
2018-09-15T12:10:05.007Z,1.70
2018-09-15T12:12:33.763Z,1.83
2018-09-15T12:15:02.851Z,1.70
2018-09-15T12:17:31.835Z,1.65
2018-09-15T12:20:00.801Z,1.95
2018-09-15T12:22:29.713Z,1.50
2018-09-15T12:24:58.349Z,2.03
2018-09-15T12:27:27.345Z,1.85
2018-09-15T12:29:56.010Z,1.80
2018-09-15T12:32:24.629Z,1.67
2018-09-15T12:34:53.372Z,1.60
2018-09-15T12:37:22.100Z,1.70
2018-09-15T12:39:50.774Z,1.70
2018-09-15T12:42:19.786Z,1.70
2018-09-15T12:44:48.548Z,1.67
2018-09-15T12:47:17.156Z,2.00
2018-09-15T12:49:45.857Z,1.50
2018-09-15T12:52:14.694Z,1.80
2018-09-15T12:54:43.723Z,1.67
2018-09-15T12:57:12.424Z,1.60
2018-09-15T12:59:41.150Z,1.60
2018-09-15T13:02:09.968Z,1.10
2018-09-15T13:04:38.590Z,1.30
2018-09-15T13:07:07.579Z,1.40
2018-09-15T13:09:36.281Z,1.37
2018-09-15T13:12:05.007Z,1.23
2018-09-15T13:14:33.642Z,1.43
2018-09-15T13:17:02.274Z,1.83
2018-09-15T13:19:30.924Z,3.57
2018-09-15T13:21:59.561Z,1.57
2018-09-15T13:24:28.599Z,1.60
2018-09-15T13:26:57.239Z,1.50
2018-09-15T13:29:26.184Z,1.17
2018-09-15T13:31:55.367Z,1.62
2018-09-15T13:34:24.283Z,1.27
2018-09-15T13:36:53.247Z,1.37
2018-09-15T13:39:22.306Z,1.07
2018-09-15T13:41:51.273Z,1.37
2018-09-15T13:44:19.895Z,1.30
2018-09-15T13:46:48.900Z,1.22
2018-09-15T13:49:17.702Z,1.20
2018-09-15T13:51:46.439Z,1.17
2018-09-15T13:54:15.081Z,1.40
2018-09-15T13:56:43.733Z,1.30
2018-09-15T13:59:12.661Z,1.22
2018-09-15T14:01:41.537Z,1.30
2018-09-15T14:04:10.388Z,1.37
2018-09-15T14:06:39.105Z,1.60
2018-09-15T14:09:09.549Z,1.20
2018-09-15T14:11:38.737Z,1.30
2018-09-15T14:14:07.765Z,1.25
2018-09-15T14:16:36.497Z,1.43
2018-09-15T14:19:06.110Z,1.32
2018-09-15T14:21:35.063Z,1.20
2018-09-15T14:24:04.379Z,1.10
2018-09-15T14:26:33.539Z,1.05
2018-09-15T14:29:02.718Z,1.13
2018-09-15T14:31:31.396Z,1.07
2018-09-15T14:34:00.025Z,1.13
2018-09-15T14:36:28.663Z,1.00
2018-09-15T14:38:57.662Z,1.17
2018-09-15T14:41:26.343Z,1.10
2018-09-15T14:43:54.978Z,1.20
2018-09-15T14:46:23.822Z,0.90
2018-09-15T14:48:52.472Z,1.00
2018-09-15T14:51:21.163Z,0.90
2018-09-15T14:53:50.167Z,1.15
2018-09-15T14:56:18.863Z,1.30
2018-09-15T14:58:47.661Z,0.90
2018-09-15T15:01:16.412Z,1.13
2018-09-15T15:03:45.324Z,1.00
2018-09-15T15:06:14.103Z,1.63
2018-09-15T15:08:42.911Z,1.30
2018-09-15T15:11:11.724Z,1.13
2018-09-15T15:13:40.373Z,1.20
2018-09-15T15:16:09.222Z,1.00
2018-09-15T15:18:37.804Z,1.07
2018-09-15T15:21:06.768Z,0.93
2018-09-15T15:23:35.502Z,1.30
2018-09-15T15:26:04.650Z,1.20
2018-09-15T15:28:33.614Z,1.50
2018-09-15T15:31:02.289Z,1.53
2018-09-15T15:33:31.234Z,1.00
2018-09-15T15:36:00.058Z,1.00
2018-09-15T15:38:28.710Z,1.10
2018-09-15T15:40:57.395Z,1.40
2018-09-15T15:43:26.266Z,1.13
2018-09-15T15:45:55.225Z,1.03
2018-09-15T15:48:23.878Z,1.03
2018-09-15T15:50:52.631Z,0.90
2018-09-15T15:53:21.272Z,1.20
2018-09-15T15:55:50.000Z,1.30
2018-09-15T15:58:18.857Z,1.30
2018-09-15T16:00:49.624Z,1.10
2018-09-15T16:03:18.302Z,1.10
2018-09-15T16:05:47.005Z,1.03
2018-09-15T16:08:15.640Z,1.40
2018-09-15T16:10:44.286Z,1.30
2018-09-15T16:13:12.945Z,1.20
2018-09-15T16:15:41.583Z,1.33
2018-09-15T16:18:10.270Z,1.30
2018-09-15T16:20:38.939Z,1.40
2018-09-15T16:23:07.591Z,1.30
2018-09-15T16:25:36.248Z,1.40
2018-09-15T16:28:05.094Z,1.00
2018-09-15T16:30:34.172Z,1.50
2018-09-15T16:33:03.244Z,1.27
2018-09-15T16:35:32.204Z,1.72
2018-09-15T16:38:00.829Z,1.70
2018-09-15T16:40:29.828Z,1.60
2018-09-15T16:42:58.977Z,1.32
2018-09-15T16:45:27.917Z,1.70
2018-09-15T16:47:56.983Z,1.45
2018-09-15T16:50:25.915Z,1.40
2018-09-15T16:52:54.845Z,1.62
2018-09-15T16:55:23.473Z,2.20
2018-09-15T16:57:52.534Z,2.35
2018-09-15T17:00:21.129Z,2.23
2018-09-15T17:02:50.207Z,1.47
2018-09-15T17:05:19.145Z,1.42
2018-09-15T17:07:48.314Z,1.37
2018-09-15T17:10:17.316Z,1.20
2018-09-15T17:12:45.966Z,1.60
2018-09-15T17:15:14.658Z,1.90
2018-09-15T17:17:43.574Z,1.50
2018-09-15T17:20:12.541Z,1.50
2018-09-15T17:22:41.537Z,1.70
2018-09-15T17:25:10.557Z,1.55
2018-09-15T17:27:39.507Z,1.77
2018-09-15T17:30:08.822Z,1.75
2018-09-15T17:32:37.759Z,1.70
2018-09-15T17:35:13.307Z,1.95
2018-09-15T17:37:42.232Z,1.72
2018-09-15T17:40:11.157Z,2.08
2018-09-15T17:42:40.105Z,2.00
2018-09-15T17:45:09.183Z,2.10
2018-09-15T17:47:38.309Z,2.20
2018-09-15T17:50:07.237Z,2.60
2018-09-15T17:52:36.225Z,2.40
2018-09-15T17:55:05.726Z,2.60
2018-09-15T17:57:34.815Z,2.10
2018-09-15T18:00:04.171Z,2.33
2018-09-15T18:02:33.088Z,1.92
2018-09-15T18:05:02.017Z,2.67
2018-09-15T18:07:30.933Z,2.42
2018-09-15T18:09:59.893Z,2.60
2018-09-15T18:12:29.005Z,2.87
2018-09-15T18:14:58.064Z,3.75
2018-09-15T18:17:27.177Z,3.77
2018-09-15T18:19:56.285Z,3.62
2018-09-15T18:22:25.225Z,3.98
2018-09-15T18:24:54.171Z,8.90
2018-09-15T18:27:23.183Z,7.62
2018-09-15T18:29:52.250Z,4.40
2018-09-15T18:32:21.333Z,2.80
2018-09-15T18:34:50.423Z,3.80
2018-09-15T18:37:19.359Z,6.08
2018-09-15T18:39:48.316Z,5.70
2018-09-15T18:42:17.245Z,5.00
2018-09-15T18:44:46.289Z,13.60
2018-09-15T18:47:15.389Z,6.03
2018-09-15T18:49:44.427Z,6.97
2018-09-15T18:52:13.409Z,5.80
2018-09-15T18:54:42.369Z,4.80
2018-09-15T18:57:11.323Z,5.90
2018-09-15T18:59:40.329Z,5.35
2018-09-15T19:02:09.479Z,6.65
2018-09-15T19:04:38.418Z,6.22
2018-09-15T19:07:07.587Z,6.67
2018-09-15T19:09:36.539Z,6.75
2018-09-15T19:12:05.583Z,5.92
2018-09-15T19:14:34.650Z,5.90
2018-09-15T19:17:03.791Z,5.97
2018-09-15T19:19:32.768Z,5.47
2018-09-15T19:22:01.672Z,5.33
2018-09-15T19:24:30.759Z,6.00
2018-09-15T19:26:59.766Z,5.37
2018-09-15T19:29:28.912Z,5.08
2018-09-15T19:31:57.944Z,5.35
2018-09-15T19:34:27.092Z,6.22
2018-09-15T19:36:56.204Z,5.15
2018-09-15T19:39:25.134Z,5.30
2018-09-15T19:41:54.119Z,5.55
2018-09-15T19:44:23.032Z,5.70
2018-09-15T19:46:51.969Z,6.50
2018-09-15T19:49:20.966Z,6.47
2018-09-15T19:51:50.422Z,6.75
2018-09-15T19:54:19.488Z,7.72
2018-09-15T19:56:48.522Z,7.60
2018-09-15T19:59:17.645Z,6.83
2018-09-15T20:01:46.802Z,7.20
2018-09-15T20:04:16.115Z,7.05
2018-09-15T20:06:45.045Z,7.15
2018-09-15T20:09:13.978Z,7.00
2018-09-15T20:11:43.118Z,7.45
2018-09-15T20:14:12.063Z,7.22
2018-09-15T20:16:39.953Z,7.72
2018-09-15T20:19:07.881Z,8.00
2018-09-15T20:21:35.925Z,9.38
2018-09-15T20:24:04.891Z,8.28
2018-09-15T20:26:34.091Z,8.73
2018-09-15T20:29:03.031Z,9.03
2018-09-15T20:31:32.015Z,9.20
2018-09-15T20:34:01.091Z,8.33
2018-09-15T20:36:30.035Z,8.63
2018-09-15T20:38:58.989Z,8.18
2018-09-15T20:41:28.070Z,8.58
2018-09-15T20:43:57.174Z,9.08
2018-09-15T20:46:26.132Z,8.85
2018-09-15T20:48:55.247Z,9.03
2018-09-15T20:51:24.387Z,9.65
2018-09-15T20:53:53.353Z,9.70
2018-09-15T20:56:22.341Z,10.58
2018-09-15T20:58:51.321Z,9.85
2018-09-15T21:01:20.358Z,10.40
2018-09-15T21:03:49.321Z,10.75
2018-09-15T21:06:18.644Z,10.28
2018-09-15T21:08:47.740Z,9.80
2018-09-15T21:11:16.713Z,10.35
2018-09-15T21:13:45.771Z,10.13
2018-09-15T21:16:14.722Z,10.63
2018-09-15T21:18:43.821Z,10.45
2018-09-15T21:21:12.790Z,10.72
2018-09-15T21:23:41.775Z,10.68
2018-09-15T21:26:10.765Z,10.80
2018-09-15T21:28:39.753Z,11.15
2018-09-15T21:31:08.759Z,10.50
2018-09-15T21:33:37.753Z,11.10
2018-09-15T21:36:07.038Z,11.15
2018-09-15T21:38:36.061Z,11.38
2018-09-15T21:41:05.377Z,11.10
2018-09-15T21:43:34.329Z,11.43
2018-09-15T21:46:03.672Z,10.75
2018-09-15T21:48:32.828Z,11.35
2018-09-15T21:51:01.770Z,11.40
2018-09-15T21:53:30.901Z,11.68
2018-09-15T21:56:00.030Z,12.10
2018-09-15T21:58:28.961Z,11.95
2018-09-15T22:01:03.762Z,11.55
2018-09-15T22:04:35.910Z,12.60
2018-09-15T22:07:05.232Z,12.37
2018-09-15T22:09:34.218Z,13.90
2018-09-15T22:12:03.310Z,13.62
2018-09-15T22:14:32.360Z,14.25
2018-09-15T22:17:01.332Z,13.60
2018-09-15T22:19:30.748Z,14.10
2018-09-15T22:21:59.710Z,14.65
2018-09-15T22:24:28.664Z,13.48
2018-09-15T22:26:57.619Z,14.28
2018-09-15T22:29:26.553Z,14.10
2018-09-15T22:31:55.475Z,14.68
2018-09-15T22:34:24.445Z,13.85
2018-09-15T22:36:53.447Z,15.13
2018-09-15T22:39:22.387Z,14.43
2018-09-15T22:41:51.410Z,13.48
2018-09-15T22:44:20.378Z,13.30
2018-09-15T22:46:49.324Z,13.05
2018-09-15T22:49:18.365Z,13.10
2018-09-15T22:51:47.493Z,12.05
2018-09-15T22:54:16.450Z,11.95
2018-09-15T22:56:45.596Z,13.05
2018-09-15T22:59:14.529Z,12.65
2018-09-15T23:01:43.513Z,12.33
2018-09-15T23:04:13.993Z,11.95
2018-09-15T23:06:42.959Z,11.80
2018-09-15T23:09:12.475Z,12.20
2018-09-15T23:11:41.488Z,12.23
2018-09-15T23:14:10.541Z,11.50
2018-09-15T23:16:39.581Z,10.80
2018-09-15T23:19:08.658Z,10.38
2018-09-15T23:21:37.731Z,10.75
2018-09-15T23:24:06.714Z,10.18
2018-09-15T23:26:35.661Z,10.30
2018-09-15T23:29:04.637Z,9.68
2018-09-15T23:31:33.601Z,9.55
2018-09-15T23:34:02.541Z,9.13
2018-09-15T23:36:31.729Z,9.18
2018-09-15T23:39:00.722Z,8.73
2018-09-15T23:41:29.677Z,8.10
2018-09-15T23:43:58.626Z,8.13
2018-09-15T23:46:27.533Z,8.60
2018-09-15T23:48:56.562Z,8.53
2018-09-15T23:51:25.542Z,8.95
2018-09-15T23:53:54.500Z,8.43
2018-09-15T23:56:23.781Z,8.15
2018-09-15T23:58:52.868Z,8.20
